sensor_id;sensor_type;location;lat;lon;timestamp;P1;durP1;ratioP1;P2;durP2;ratioP2
3667;SDS011;24099;47.102;15.440;2023-09-19T00:00:36;7.47;;;3.22;;
3667;SDS011;24099;47.102;15.440;2023-09-19T00:03:04;9.27;;;3.28;;
3667;SDS011;24099;47.102;15.440;2023-09-19T00:05:35;9.38;;;3.47;;
3667;SDS011;24099;47.102;15.440;2023-09-19T00:08:04;9.88;;;3.42;;
3667;SDS011;24099;47.102;15.440;2023-09-19T00:10:33;4.10;;;2.97;;
3667;SDS011;24099;47.102;15.440;2023-09-19T00:13:01;7.63;;;3.75;;
3667;SDS011;24099;47.102;15.440;2023-09-19T00:15:31;6.18;;;3.50;;
3667;SDS011;24099;47.102;15.440;2023-09-19T00:18:03;5.90;;;3.03;;
3667;SDS011;24099;47.102;15.440;2023-09-19T00:20:31;5.38;;;3.47;;
3667;SDS011;24099;47.102;15.440;2023-09-19T00:23:02;5.07;;;3.03;;
3667;SDS011;24099;47.102;15.440;2023-09-19T00:25:34;8.90;;;2.95;;
3667;SDS011;24099;47.102;15.440;2023-09-19T00:28:02;4.38;;;2.78;;
3667;SDS011;24099;47.102;15.440;2023-09-19T00:30:30;5.90;;;3.08;;
3667;SDS011;24099;47.102;15.440;2023-09-19T00:32:58;5.13;;;3.05;;
3667;SDS011;24099;47.102;15.440;2023-09-19T00:35:26;5.68;;;2.63;;
3667;SDS011;24099;47.102;15.440;2023-09-19T00:40:22;7.18;;;3.08;;
3667;SDS011;24099;47.102;15.440;2023-09-19T00:42:50;5.50;;;2.83;;
3667;SDS011;24099;47.102;15.440;2023-09-19T00:45:18;6.05;;;3.10;;
3667;SDS011;24099;47.102;15.440;2023-09-19T00:47:47;7.53;;;3.00;;
3667;SDS011;24099;47.102;15.440;2023-09-19T00:50:17;7.93;;;3.08;;
3667;SDS011;24099;47.102;15.440;2023-09-19T00:52:44;4.07;;;2.90;;
3667;SDS011;24099;47.102;15.440;2023-09-19T00:55:15;5.78;;;2.90;;
3667;SDS011;24099;47.102;15.440;2023-09-19T00:57:46;5.25;;;3.25;;
3667;SDS011;24099;47.102;15.440;2023-09-19T01:00:15;5.40;;;3.50;;
3667;SDS011;24099;47.102;15.440;2023-09-19T01:02:45;7.80;;;3.08;;
3667;SDS011;24099;47.102;15.440;2023-09-19T01:05:12;4.38;;;2.75;;
3667;SDS011;24099;47.102;15.440;2023-09-19T01:07:40;7.20;;;3.10;;
3667;SDS011;24099;47.102;15.440;2023-09-19T01:10:08;4.63;;;2.67;;
3667;SDS011;24099;47.102;15.440;2023-09-19T01:12:38;5.57;;;2.67;;
3667;SDS011;24099;47.102;15.440;2023-09-19T01:15:13;5.20;;;2.90;;
3667;SDS011;24099;47.102;15.440;2023-09-19T01:17:45;7.70;;;2.40;;
3667;SDS011;24099;47.102;15.440;2023-09-19T01:20:18;16.80;;;2.72;;
3667;SDS011;24099;47.102;15.440;2023-09-19T01:23:00;5.22;;;2.63;;
3667;SDS011;24099;47.102;15.440;2023-09-19T01:25:41;5.38;;;2.80;;
3667;SDS011;24099;47.102;15.440;2023-09-19T01:28:20;5.30;;;2.42;;
3667;SDS011;24099;47.102;15.440;2023-09-19T01:30:56;7.15;;;2.92;;
3667;SDS011;24099;47.102;15.440;2023-09-19T01:33:26;6.60;;;2.03;;
3667;SDS011;24099;47.102;15.440;2023-09-19T01:35:59;3.97;;;2.35;;
3667;SDS011;24099;47.102;15.440;2023-09-19T01:38:26;4.93;;;2.22;;
3667;SDS011;24099;47.102;15.440;2023-09-19T01:40:56;6.00;;;2.45;;
3667;SDS011;24099;47.102;15.440;2023-09-19T01:43:30;6.57;;;2.58;;
3667;SDS011;24099;47.102;15.440;2023-09-19T01:46:02;8.23;;;2.60;;
3667;SDS011;24099;47.102;15.440;2023-09-19T01:48:33;4.93;;;2.60;;
3667;SDS011;24099;47.102;15.440;2023-09-19T01:51:05;2.95;;;2.17;;
3667;SDS011;24099;47.102;15.440;2023-09-19T01:53:33;7.28;;;2.03;;
3667;SDS011;24099;47.102;15.440;2023-09-19T01:56:02;6.50;;;1.90;;
3667;SDS011;24099;47.102;15.440;2023-09-19T01:58:32;5.10;;;2.08;;
3667;SDS011;24099;47.102;15.440;2023-09-19T02:01:02;4.50;;;1.92;;
3667;SDS011;24099;47.102;15.440;2023-09-19T02:03:31;3.78;;;2.03;;
3667;SDS011;24099;47.102;15.440;2023-09-19T02:05:58;4.22;;;2.08;;
3667;SDS011;24099;47.102;15.440;2023-09-19T02:08:26;3.03;;;2.17;;
3667;SDS011;24099;47.102;15.440;2023-09-19T02:10:54;3.25;;;1.70;;
3667;SDS011;24099;47.102;15.440;2023-09-19T02:13:22;5.45;;;2.60;;
3667;SDS011;24099;47.102;15.440;2023-09-19T02:15:52;9.65;;;1.88;;
3667;SDS011;24099;47.102;15.440;2023-09-19T02:20:48;3.25;;;1.75;;
3667;SDS011;24099;47.102;15.440;2023-09-19T02:23:16;7.18;;;1.70;;
3667;SDS011;24099;47.102;15.440;2023-09-19T02:25:51;3.22;;;1.80;;
3667;SDS011;24099;47.102;15.440;2023-09-19T02:28:18;3.28;;;2.17;;
3667;SDS011;24099;47.102;15.440;2023-09-19T02:30:47;6.18;;;2.08;;
3667;SDS011;24099;47.102;15.440;2023-09-19T02:33:15;2.33;;;1.73;;
3667;SDS011;24099;47.102;15.440;2023-09-19T02:35:44;4.22;;;2.05;;
3667;SDS011;24099;47.102;15.440;2023-09-19T02:38:13;4.03;;;2.30;;
3667;SDS011;24099;47.102;15.440;2023-09-19T02:40:43;4.93;;;2.00;;
3667;SDS011;24099;47.102;15.440;2023-09-19T02:43:11;4.10;;;2.00;;
3667;SDS011;24099;47.102;15.440;2023-09-19T02:45:38;5.70;;;1.08;;
3667;SDS011;24099;47.102;15.440;2023-09-19T02:48:06;1.73;;;1.50;;
3667;SDS011;24099;47.102;15.440;2023-09-19T02:50:33;2.42;;;1.42;;
3667;SDS011;24099;47.102;15.440;2023-09-19T02:53:01;2.78;;;1.30;;
3667;SDS011;24099;47.102;15.440;2023-09-19T02:55:31;6.10;;;1.67;;
3667;SDS011;24099;47.102;15.440;2023-09-19T02:57:59;4.28;;;1.50;;
3667;SDS011;24099;47.102;15.440;2023-09-19T03:00:27;3.58;;;1.38;;
3667;SDS011;24099;47.102;15.440;2023-09-19T03:02:55;2.13;;;1.48;;
3667;SDS011;24099;47.102;15.440;2023-09-19T03:05:23;2.40;;;1.30;;
3667;SDS011;24099;47.102;15.440;2023-09-19T03:07:51;3.65;;;1.35;;
3667;SDS011;24099;47.102;15.440;2023-09-19T03:10:21;2.65;;;1.20;;
3667;SDS011;24099;47.102;15.440;2023-09-19T03:12:51;2.42;;;1.35;;
3667;SDS011;24099;47.102;15.440;2023-09-19T03:15:19;1.80;;;1.20;;
3667;SDS011;24099;47.102;15.440;2023-09-19T03:17:48;0.95;;;0.93;;
3667;SDS011;24099;47.102;15.440;2023-09-19T03:20:20;2.13;;;1.27;;
3667;SDS011;24099;47.102;15.440;2023-09-19T03:22:48;1.35;;;1.13;;
3667;SDS011;24099;47.102;15.440;2023-09-19T03:25:16;0.88;;;0.60;;
3667;SDS011;24099;47.102;15.440;2023-09-19T03:27:47;4.28;;;0.88;;
3667;SDS011;24099;47.102;15.440;2023-09-19T03:30:16;1.17;;;0.85;;
3667;SDS011;24099;47.102;15.440;2023-09-19T03:32:45;3.50;;;0.75;;
3667;SDS011;24099;47.102;15.440;2023-09-19T03:35:15;1.05;;;0.50;;
3667;SDS011;24099;47.102;15.440;2023-09-19T03:37:44;2.28;;;0.70;;
3667;SDS011;24099;47.102;15.440;2023-09-19T03:40:13;0.70;;;0.70;;
3667;SDS011;24099;47.102;15.440;2023-09-19T03:42:41;6.63;;;0.65;;
3667;SDS011;24099;47.102;15.440;2023-09-19T03:45:12;0.47;;;0.40;;
3667;SDS011;24099;47.102;15.440;2023-09-19T03:47:47;0.60;;;0.60;;
3667;SDS011;24099;47.102;15.440;2023-09-19T03:50:18;1.77;;;0.70;;
3667;SDS011;24099;47.102;15.440;2023-09-19T03:52:45;3.60;;;0.73;;
3667;SDS011;24099;47.102;15.440;2023-09-19T03:55:12;0.50;;;0.50;;
3667;SDS011;24099;47.102;15.440;2023-09-19T03:57:40;0.50;;;0.40;;
3667;SDS011;24099;47.102;15.440;2023-09-19T04:00:09;0.60;;;0.60;;
3667;SDS011;24099;47.102;15.440;2023-09-19T04:02:39;0.30;;;0.30;;
3667;SDS011;24099;47.102;15.440;2023-09-19T04:05:08;0.50;;;0.50;;
3667;SDS011;24099;47.102;15.440;2023-09-19T04:07:36;0.50;;;0.43;;
3667;SDS011;24099;47.102;15.440;2023-09-19T04:10:03;3.35;;;0.60;;
3667;SDS011;24099;47.102;15.440;2023-09-19T04:12:31;1.25;;;0.60;;
3667;SDS011;24099;47.102;15.440;2023-09-19T04:15:00;2.00;;;0.57;;
3667;SDS011;24099;47.102;15.440;2023-09-19T04:17:27;0.32;;;0.32;;
3667;SDS011;24099;47.102;15.440;2023-09-19T04:19:55;0.40;;;0.40;;
3667;SDS011;24099;47.102;15.440;2023-09-19T04:22:24;2.95;;;0.60;;
3667;SDS011;24099;47.102;15.440;2023-09-19T04:24:51;2.15;;;0.73;;
3667;SDS011;24099;47.102;15.440;2023-09-19T04:29:45;0.43;;;0.40;;
3667;SDS011;24099;47.102;15.440;2023-09-19T04:34:41;5.30;;;0.55;;
3667;SDS011;24099;47.102;15.440;2023-09-19T04:39:37;2.88;;;0.55;;
3667;SDS011;24099;47.102;15.440;2023-09-19T04:42:05;1.88;;;0.80;;
3667;SDS011;24099;47.102;15.440;2023-09-19T04:44:32;0.65;;;0.65;;
3667;SDS011;24099;47.102;15.440;2023-09-19T04:47:00;0.43;;;0.43;;
3667;SDS011;24099;47.102;15.440;2023-09-19T04:49:27;0.45;;;0.45;;
3667;SDS011;24099;47.102;15.440;2023-09-19T04:51:55;0.85;;;0.50;;
3667;SDS011;24099;47.102;15.440;2023-09-19T04:54:22;0.80;;;0.40;;
3667;SDS011;24099;47.102;15.440;2023-09-19T04:59:18;1.85;;;0.50;;
3667;SDS011;24099;47.102;15.440;2023-09-19T05:01:45;0.88;;;0.50;;
3667;SDS011;24099;47.102;15.440;2023-09-19T05:04:13;1.23;;;0.77;;
3667;SDS011;24099;47.102;15.440;2023-09-19T05:09:07;1.25;;;0.52;;
3667;SDS011;24099;47.102;15.440;2023-09-19T05:11:35;1.90;;;1.20;;
3667;SDS011;24099;47.102;15.440;2023-09-19T05:14:03;1.50;;;1.40;;
3667;SDS011;24099;47.102;15.440;2023-09-19T05:16:32;1.25;;;1.00;;
3667;SDS011;24099;47.102;15.440;2023-09-19T05:19:01;1.27;;;0.77;;
3667;SDS011;24099;47.102;15.440;2023-09-19T05:21:28;1.05;;;0.60;;
3667;SDS011;24099;47.102;15.440;2023-09-19T05:23:56;1.52;;;0.70;;
3667;SDS011;24099;47.102;15.440;2023-09-19T05:26:23;3.13;;;0.43;;
3667;SDS011;24099;47.102;15.440;2023-09-19T05:28:50;0.82;;;0.55;;
3667;SDS011;24099;47.102;15.440;2023-09-19T05:31:18;1.10;;;0.50;;
3667;SDS011;24099;47.102;15.440;2023-09-19T05:33:47;0.63;;;0.47;;
3667;SDS011;24099;47.102;15.440;2023-09-19T05:36:15;1.80;;;0.60;;
3667;SDS011;24099;47.102;15.440;2023-09-19T05:38:42;1.38;;;0.40;;
3667;SDS011;24099;47.102;15.440;2023-09-19T05:41:09;2.08;;;0.52;;
3667;SDS011;24099;47.102;15.440;2023-09-19T05:43:38;0.85;;;0.50;;
3667;SDS011;24099;47.102;15.440;2023-09-19T05:46:06;3.17;;;0.70;;
3667;SDS011;24099;47.102;15.440;2023-09-19T05:48:34;0.50;;;0.50;;
3667;SDS011;24099;47.102;15.440;2023-09-19T05:53:29;0.50;;;0.50;;
3667;SDS011;24099;47.102;15.440;2023-09-19T05:55:57;1.00;;;0.50;;
3667;SDS011;24099;47.102;15.440;2023-09-19T05:58:27;3.42;;;0.60;;
3667;SDS011;24099;47.102;15.440;2023-09-19T06:03:22;0.55;;;0.40;;
3667;SDS011;24099;47.102;15.440;2023-09-19T06:05:49;0.73;;;0.68;;
3667;SDS011;24099;47.102;15.440;2023-09-19T06:08:18;0.50;;;0.50;;
3667;SDS011;24099;47.102;15.440;2023-09-19T06:13:13;0.43;;;0.40;;
3667;SDS011;24099;47.102;15.440;2023-09-19T06:15:41;0.52;;;0.52;;
3667;SDS011;24099;47.102;15.440;2023-09-19T06:18:10;0.40;;;0.40;;
3667;SDS011;24099;47.102;15.440;2023-09-19T06:20:40;4.18;;;0.50;;
3667;SDS011;24099;47.102;15.440;2023-09-19T06:23:09;2.05;;;1.13;;
3667;SDS011;24099;47.102;15.440;2023-09-19T06:25:37;0.68;;;0.52;;
3667;SDS011;24099;47.102;15.440;2023-09-19T06:28:04;8.02;;;1.23;;
3667;SDS011;24099;47.102;15.440;2023-09-19T06:30:34;1.05;;;0.68;;
3667;SDS011;24099;47.102;15.440;2023-09-19T06:33:05;1.42;;;0.70;;
3667;SDS011;24099;47.102;15.440;2023-09-19T06:35:33;3.45;;;0.77;;
3667;SDS011;24099;47.102;15.440;2023-09-19T06:38:02;1.13;;;0.50;;
3667;SDS011;24099;47.102;15.440;2023-09-19T06:40:29;0.73;;;0.45;;
3667;SDS011;24099;47.102;15.440;2023-09-19T06:42:57;1.38;;;0.60;;
3667;SDS011;24099;47.102;15.440;2023-09-19T06:45:27;1.30;;;0.60;;
3667;SDS011;24099;47.102;15.440;2023-09-19T06:47:55;0.80;;;0.55;;
3667;SDS011;24099;47.102;15.440;2023-09-19T06:50:25;0.40;;;0.40;;
3667;SDS011;24099;47.102;15.440;2023-09-19T06:52:53;1.63;;;0.60;;
3667;SDS011;24099;47.102;15.440;2023-09-19T06:55:22;0.60;;;0.57;;
3667;SDS011;24099;47.102;15.440;2023-09-19T06:57:50;1.35;;;0.70;;
3667;SDS011;24099;47.102;15.440;2023-09-19T07:00:19;5.75;;;1.10;;
3667;SDS011;24099;47.102;15.440;2023-09-19T07:02:56;3.38;;;0.70;;
3667;SDS011;24099;47.102;15.440;2023-09-19T07:05:24;1.75;;;0.60;;
3667;SDS011;24099;47.102;15.440;2023-09-19T07:07:52;4.93;;;0.82;;
3667;SDS011;24099;47.102;15.440;2023-09-19T07:10:21;1.58;;;0.90;;
3667;SDS011;24099;47.102;15.440;2023-09-19T07:12:53;2.17;;;0.95;;
3667;SDS011;24099;47.102;15.440;2023-09-19T07:15:20;1.27;;;0.90;;
3667;SDS011;24099;47.102;15.440;2023-09-19T07:17:50;1.92;;;1.05;;
3667;SDS011;24099;47.102;15.440;2023-09-19T07:20:19;2.50;;;1.05;;
3667;SDS011;24099;47.102;15.440;2023-09-19T07:22:47;1.33;;;0.93;;
3667;SDS011;24099;47.102;15.440;2023-09-19T07:25:15;0.88;;;0.80;;
3667;SDS011;24099;47.102;15.440;2023-09-19T07:27:43;1.17;;;0.95;;
3667;SDS011;24099;47.102;15.440;2023-09-19T07:30:11;0.70;;;0.70;;
3667;SDS011;24099;47.102;15.440;2023-09-19T07:32:40;4.57;;;0.90;;
3667;SDS011;24099;47.102;15.440;2023-09-19T07:35:07;2.67;;;0.73;;
3667;SDS011;24099;47.102;15.440;2023-09-19T07:37:36;0.75;;;0.65;;
3667;SDS011;24099;47.102;15.440;2023-09-19T07:40:04;1.23;;;1.00;;
3667;SDS011;24099;47.102;15.440;2023-09-19T07:42:32;2.95;;;0.82;;
3667;SDS011;24099;47.102;15.440;2023-09-19T07:45:00;1.15;;;0.85;;
3667;SDS011;24099;47.102;15.440;2023-09-19T07:47:28;2.75;;;0.90;;
3667;SDS011;24099;47.102;15.440;2023-09-19T07:49:57;1.35;;;0.70;;
3667;SDS011;24099;47.102;15.440;2023-09-19T07:52:27;0.90;;;0.80;;
3667;SDS011;24099;47.102;15.440;2023-09-19T07:54:56;0.80;;;0.80;;
3667;SDS011;24099;47.102;15.440;2023-09-19T07:57:26;1.60;;;0.77;;
3667;SDS011;24099;47.102;15.440;2023-09-19T07:59:55;1.65;;;0.90;;
3667;SDS011;24099;47.102;15.440;2023-09-19T08:02:22;2.58;;;0.65;;
3667;SDS011;24099;47.102;15.440;2023-09-19T08:07:17;1.02;;;0.70;;
3667;SDS011;24099;47.102;15.440;2023-09-19T08:09:47;0.93;;;0.60;;
3667;SDS011;24099;47.102;15.440;2023-09-19T08:12:16;2.05;;;0.88;;
3667;SDS011;24099;47.102;15.440;2023-09-19T08:14:47;1.25;;;0.65;;
3667;SDS011;24099;47.102;15.440;2023-09-19T08:17:15;1.00;;;0.55;;
3667;SDS011;24099;47.102;15.440;2023-09-19T08:19:42;0.52;;;0.52;;
3667;SDS011;24099;47.102;15.440;2023-09-19T08:22:11;0.93;;;0.80;;
3667;SDS011;24099;47.102;15.440;2023-09-19T08:24:38;3.03;;;0.80;;
3667;SDS011;24099;47.102;15.440;2023-09-19T08:27:08;3.33;;;0.73;;
3667;SDS011;24099;47.102;15.440;2023-09-19T08:29:37;0.63;;;0.63;;
3667;SDS011;24099;47.102;15.440;2023-09-19T08:32:04;5.72;;;0.77;;
3667;SDS011;24099;47.102;15.440;2023-09-19T08:34:32;1.75;;;0.70;;
3667;SDS011;24099;47.102;15.440;2023-09-19T08:37:00;2.72;;;0.90;;
3667;SDS011;24099;47.102;15.440;2023-09-19T08:39:27;3.90;;;0.70;;
3667;SDS011;24099;47.102;15.440;2023-09-19T08:41:59;1.75;;;0.90;;
3667;SDS011;24099;47.102;15.440;2023-09-19T08:44:30;1.50;;;0.70;;
3667;SDS011;24099;47.102;15.440;2023-09-19T08:47:07;3.70;;;0.60;;
3667;SDS011;24099;47.102;15.440;2023-09-19T08:49:41;0.73;;;0.73;;
3667;SDS011;24099;47.102;15.440;2023-09-19T08:52:10;1.45;;;0.60;;
3667;SDS011;24099;47.102;15.440;2023-09-19T08:54:40;1.63;;;0.65;;
3667;SDS011;24099;47.102;15.440;2023-09-19T08:57:08;2.75;;;0.75;;
3667;SDS011;24099;47.102;15.440;2023-09-19T08:59:37;0.80;;;0.80;;
3667;SDS011;24099;47.102;15.440;2023-09-19T09:02:09;2.53;;;0.90;;
3667;SDS011;24099;47.102;15.440;2023-09-19T09:04:38;2.92;;;0.90;;
3667;SDS011;24099;47.102;15.440;2023-09-19T09:07:06;0.60;;;0.60;;
3667;SDS011;24099;47.102;15.440;2023-09-19T09:09:37;3.00;;;1.02;;
3667;SDS011;24099;47.102;15.440;2023-09-19T09:12:07;0.55;;;0.55;;
3667;SDS011;24099;47.102;15.440;2023-09-19T09:14:35;1.00;;;0.77;;
3667;SDS011;24099;47.102;15.440;2023-09-19T09:17:03;3.50;;;0.88;;
3667;SDS011;24099;47.102;15.440;2023-09-19T09:19:32;2.00;;;1.05;;
3667;SDS011;24099;47.102;15.440;2023-09-19T09:22:06;11.60;;;0.88;;
3667;SDS011;24099;47.102;15.440;2023-09-19T09:24:34;0.75;;;0.68;;
3667;SDS011;24099;47.102;15.440;2023-09-19T09:27:04;1.45;;;1.10;;
3667;SDS011;24099;47.102;15.440;2023-09-19T09:29:40;1.98;;;0.63;;
3667;SDS011;24099;47.102;15.440;2023-09-19T09:32:21;1.92;;;0.98;;
3667;SDS011;24099;47.102;15.440;2023-09-19T09:34:51;1.90;;;0.77;;
3667;SDS011;24099;47.102;15.440;2023-09-19T09:37:19;0.55;;;0.55;;
3667;SDS011;24099;47.102;15.440;2023-09-19T09:39:50;1.98;;;1.05;;
3667;SDS011;24099;47.102;15.440;2023-09-19T09:42:31;3.80;;;0.95;;
3667;SDS011;24099;47.102;15.440;2023-09-19T09:45:12;1.50;;;0.80;;
3667;SDS011;24099;47.102;15.440;2023-09-19T09:47:42;2.45;;;0.68;;
3667;SDS011;24099;47.102;15.440;2023-09-19T09:53:21;1.33;;;0.88;;
3667;SDS011;24099;47.102;15.440;2023-09-19T09:55:57;2.17;;;0.90;;
3667;SDS011;24099;47.102;15.440;2023-09-19T09:58:26;1.08;;;0.82;;
3667;SDS011;24099;47.102;15.440;2023-09-19T10:00:55;1.70;;;0.80;;
3667;SDS011;24099;47.102;15.440;2023-09-19T10:03:32;2.25;;;0.80;;
3667;SDS011;24099;47.102;15.440;2023-09-19T10:06:05;1.52;;;0.77;;
3667;SDS011;24099;47.102;15.440;2023-09-19T10:09:02;1.70;;;0.70;;
3667;SDS011;24099;47.102;15.440;2023-09-19T10:11:38;2.00;;;0.80;;
3667;SDS011;24099;47.102;15.440;2023-09-19T10:14:08;1.23;;;0.65;;
3667;SDS011;24099;47.102;15.440;2023-09-19T10:16:38;1.80;;;0.80;;
3667;SDS011;24099;47.102;15.440;2023-09-19T10:19:07;3.60;;;0.70;;
3667;SDS011;24099;47.102;15.440;2023-09-19T10:21:35;1.88;;;0.90;;
3667;SDS011;24099;47.102;15.440;2023-09-19T10:24:06;1.30;;;0.63;;
3667;SDS011;24099;47.102;15.440;2023-09-19T10:26:35;1.42;;;0.70;;
3667;SDS011;24099;47.102;15.440;2023-09-19T10:29:04;2.80;;;0.70;;
3667;SDS011;24099;47.102;15.440;2023-09-19T10:31:35;1.15;;;0.65;;
3667;SDS011;24099;47.102;15.440;2023-09-19T10:34:06;4.63;;;0.95;;
3667;SDS011;24099;47.102;15.440;2023-09-19T10:36:35;0.82;;;0.73;;
3667;SDS011;24099;47.102;15.440;2023-09-19T10:39:03;1.77;;;0.75;;
3667;SDS011;24099;47.102;15.440;2023-09-19T10:41:35;7.25;;;0.80;;
3667;SDS011;24099;47.102;15.440;2023-09-19T10:44:04;0.70;;;0.70;;
3667;SDS011;24099;47.102;15.440;2023-09-19T10:46:31;2.72;;;0.70;;
3667;SDS011;24099;47.102;15.440;2023-09-19T10:48:59;1.17;;;0.75;;
3667;SDS011;24099;47.102;15.440;2023-09-19T10:51:28;1.42;;;0.70;;
3667;SDS011;24099;47.102;15.440;2023-09-19T10:53:59;2.40;;;0.73;;
3667;SDS011;24099;47.102;15.440;2023-09-19T10:56:30;0.50;;;0.50;;
3667;SDS011;24099;47.102;15.440;2023-09-19T10:59:07;3.25;;;0.90;;
3667;SDS011;24099;47.102;15.440;2023-09-19T11:01:45;1.23;;;0.85;;
3667;SDS011;24099;47.102;15.440;2023-09-19T11:04:23;1.77;;;0.70;;
3667;SDS011;24099;47.102;15.440;2023-09-19T11:07:01;1.10;;;0.60;;
3667;SDS011;24099;47.102;15.440;2023-09-19T11:09:42;1.00;;;0.60;;
3667;SDS011;24099;47.102;15.440;2023-09-19T11:12:11;4.00;;;0.60;;
3667;SDS011;24099;47.102;15.440;2023-09-19T11:14:40;0.90;;;0.52;;
3667;SDS011;24099;47.102;15.440;2023-09-19T11:20:20;2.85;;;0.82;;
3667;SDS011;24099;47.102;15.440;2023-09-19T11:30:59;3.28;;;0.80;;
3667;SDS011;24099;47.102;15.440;2023-09-19T11:33:26;4.40;;;0.52;;
3667;SDS011;24099;47.102;15.440;2023-09-19T11:36:03;2.13;;;0.60;;
3667;SDS011;24099;47.102;15.440;2023-09-19T11:46:53;1.10;;;0.45;;
3667;SDS011;24099;47.102;15.440;2023-09-19T11:49:25;2.28;;;0.47;;
3667;SDS011;24099;47.102;15.440;2023-09-19T11:51:57;0.60;;;0.50;;
3667;SDS011;24099;47.102;15.440;2023-09-19T11:54:26;2.17;;;0.57;;
3667;SDS011;24099;47.102;15.440;2023-09-19T11:56:57;1.80;;;0.45;;
3667;SDS011;24099;47.102;15.440;2023-09-19T11:59:25;1.73;;;0.63;;
3667;SDS011;24099;47.102;15.440;2023-09-19T12:01:57;0.47;;;0.38;;
3667;SDS011;24099;47.102;15.440;2023-09-19T12:04:33;0.60;;;0.50;;
3667;SDS011;24099;47.102;15.440;2023-09-19T12:07:03;0.50;;;0.50;;
3667;SDS011;24099;47.102;15.440;2023-09-19T12:09:31;0.52;;;0.40;;
3667;SDS011;24099;47.102;15.440;2023-09-19T12:11:58;2.78;;;0.50;;
3667;SDS011;24099;47.102;15.440;2023-09-19T12:14:26;0.90;;;0.50;;
3667;SDS011;24099;47.102;15.440;2023-09-19T12:16:54;0.98;;;0.45;;
3667;SDS011;24099;47.102;15.440;2023-09-19T12:19:23;0.60;;;0.50;;
3667;SDS011;24099;47.102;15.440;2023-09-19T12:21:59;0.55;;;0.50;;
3667;SDS011;24099;47.102;15.440;2023-09-19T12:24:30;1.67;;;0.70;;
3667;SDS011;24099;47.102;15.440;2023-09-19T12:27:01;1.05;;;0.55;;
3667;SDS011;24099;47.102;15.440;2023-09-19T12:29:31;0.88;;;0.50;;
3667;SDS011;24099;47.102;15.440;2023-09-19T12:32:01;1.35;;;0.70;;
3667;SDS011;24099;47.102;15.440;2023-09-19T12:34:33;0.63;;;0.45;;
3667;SDS011;24099;47.102;15.440;2023-09-19T12:37:05;0.35;;;0.35;;
3667;SDS011;24099;47.102;15.440;2023-09-19T12:39:45;3.10;;;0.75;;
3667;SDS011;24099;47.102;15.440;2023-09-19T12:42:14;1.00;;;0.50;;
3667;SDS011;24099;47.102;15.440;2023-09-19T12:44:45;2.72;;;0.52;;
3667;SDS011;24099;47.102;15.440;2023-09-19T12:47:14;2.90;;;0.45;;
3667;SDS011;24099;47.102;15.440;2023-09-19T12:52:43;1.25;;;0.63;;
3667;SDS011;24099;47.102;15.440;2023-09-19T12:55:19;2.47;;;0.40;;
3667;SDS011;24099;47.102;15.440;2023-09-19T12:57:58;0.63;;;0.47;;
3667;SDS011;24099;47.102;15.440;2023-09-19T13:00:37;0.85;;;0.57;;
3667;SDS011;24099;47.102;15.440;2023-09-19T13:03:16;0.98;;;0.60;;
3667;SDS011;24099;47.102;15.440;2023-09-19T13:05:52;1.13;;;0.50;;
3667;SDS011;24099;47.102;15.440;2023-09-19T13:08:23;0.90;;;0.55;;
3667;SDS011;24099;47.102;15.440;2023-09-19T13:11:03;0.63;;;0.40;;
3667;SDS011;24099;47.102;15.440;2023-09-19T13:13:32;0.90;;;0.50;;
3667;SDS011;24099;47.102;15.440;2023-09-19T13:16:01;1.75;;;0.47;;
3667;SDS011;24099;47.102;15.440;2023-09-19T13:18:30;0.38;;;0.38;;
3667;SDS011;24099;47.102;15.440;2023-09-19T13:21:08;1.13;;;0.60;;
3667;SDS011;24099;47.102;15.440;2023-09-19T13:23:38;1.10;;;0.50;;
3667;SDS011;24099;47.102;15.440;2023-09-19T13:26:07;4.50;;;0.68;;
3667;SDS011;24099;47.102;15.440;2023-09-19T13:28:35;1.20;;;0.50;;
3667;SDS011;24099;47.102;15.440;2023-09-19T13:31:05;4.00;;;0.50;;
3667;SDS011;24099;47.102;15.440;2023-09-19T13:33:35;0.40;;;0.40;;
3667;SDS011;24099;47.102;15.440;2023-09-19T13:36:09;1.17;;;0.50;;
3667;SDS011;24099;47.102;15.440;2023-09-19T13:38:38;2.55;;;0.50;;
3667;SDS011;24099;47.102;15.440;2023-09-19T13:41:08;0.40;;;0.40;;
3667;SDS011;24099;47.102;15.440;2023-09-19T13:43:36;5.25;;;0.40;;
3667;SDS011;24099;47.102;15.440;2023-09-19T13:46:04;3.88;;;0.68;;
3667;SDS011;24099;47.102;15.440;2023-09-19T13:48:32;1.67;;;0.40;;
3667;SDS011;24099;47.102;15.440;2023-09-19T13:51:01;0.47;;;0.47;;
3667;SDS011;24099;47.102;15.440;2023-09-19T13:53:29;0.57;;;0.50;;
3667;SDS011;24099;47.102;15.440;2023-09-19T13:55:58;0.35;;;0.32;;
3667;SDS011;24099;47.102;15.440;2023-09-19T13:58:26;2.20;;;0.50;;
3667;SDS011;24099;47.102;15.440;2023-09-19T14:00:56;4.40;;;0.85;;
3667;SDS011;24099;47.102;15.440;2023-09-19T14:03:26;0.50;;;0.40;;
3667;SDS011;24099;47.102;15.440;2023-09-19T14:05:54;0.85;;;0.50;;
3667;SDS011;24099;47.102;15.440;2023-09-19T14:08:22;1.17;;;0.50;;
3667;SDS011;24099;47.102;15.440;2023-09-19T14:10:50;1.15;;;0.50;;
3667;SDS011;24099;47.102;15.440;2023-09-19T14:13:20;0.77;;;0.70;;
3667;SDS011;24099;47.102;15.440;2023-09-19T14:15:47;0.80;;;0.50;;
3667;SDS011;24099;47.102;15.440;2023-09-19T14:18:15;1.50;;;0.55;;
3667;SDS011;24099;47.102;15.440;2023-09-19T14:20:43;3.28;;;0.80;;
3667;SDS011;24099;47.102;15.440;2023-09-19T14:23:11;1.38;;;0.73;;
3667;SDS011;24099;47.102;15.440;2023-09-19T14:25:38;0.52;;;0.50;;
3667;SDS011;24099;47.102;15.440;2023-09-19T14:28:06;0.80;;;0.50;;
3667;SDS011;24099;47.102;15.440;2023-09-19T14:30:35;0.70;;;0.47;;
3667;SDS011;24099;47.102;15.440;2023-09-19T14:33:03;3.10;;;0.80;;
3667;SDS011;24099;47.102;15.440;2023-09-19T14:35:31;0.47;;;0.47;;
3667;SDS011;24099;47.102;15.440;2023-09-19T14:37:58;0.50;;;0.50;;
3667;SDS011;24099;47.102;15.440;2023-09-19T14:40:26;1.38;;;0.60;;
3667;SDS011;24099;47.102;15.440;2023-09-19T14:45:20;3.42;;;0.50;;
3667;SDS011;24099;47.102;15.440;2023-09-19T14:47:50;1.15;;;0.60;;
3667;SDS011;24099;47.102;15.440;2023-09-19T14:50:20;0.50;;;0.40;;
3667;SDS011;24099;47.102;15.440;2023-09-19T14:52:47;0.73;;;0.40;;
3667;SDS011;24099;47.102;15.440;2023-09-19T14:55:16;0.70;;;0.70;;
3667;SDS011;24099;47.102;15.440;2023-09-19T14:57:48;1.77;;;0.43;;
3667;SDS011;24099;47.102;15.440;2023-09-19T15:00:19;0.47;;;0.45;;
3667;SDS011;24099;47.102;15.440;2023-09-19T15:02:50;0.57;;;0.57;;
3667;SDS011;24099;47.102;15.440;2023-09-19T15:05:17;2.28;;;0.43;;
3667;SDS011;24099;47.102;15.440;2023-09-19T15:07:45;0.85;;;0.50;;
3667;SDS011;24099;47.102;15.440;2023-09-19T15:12:39;0.40;;;0.40;;
3667;SDS011;24099;47.102;15.440;2023-09-19T15:15:07;2.95;;;0.70;;
3667;SDS011;24099;47.102;15.440;2023-09-19T15:17:35;2.95;;;0.60;;
3667;SDS011;24099;47.102;15.440;2023-09-19T15:20:04;0.68;;;0.60;;
3667;SDS011;24099;47.102;15.440;2023-09-19T15:22:32;3.45;;;0.80;;
3667;SDS011;24099;47.102;15.440;2023-09-19T15:25:04;0.55;;;0.52;;
3667;SDS011;24099;47.102;15.440;2023-09-19T15:27:31;0.38;;;0.38;;
3667;SDS011;24099;47.102;15.440;2023-09-19T15:29:59;1.25;;;0.60;;
3667;SDS011;24099;47.102;15.440;2023-09-19T15:32:30;1.95;;;1.00;;
3667;SDS011;24099;47.102;15.440;2023-09-19T15:34:57;2.53;;;0.57;;
3667;SDS011;24099;47.102;15.440;2023-09-19T15:37:27;0.85;;;0.60;;
3667;SDS011;24099;47.102;15.440;2023-09-19T15:39:54;2.55;;;0.90;;
3667;SDS011;24099;47.102;15.440;2023-09-19T15:42:22;3.20;;;0.65;;
3667;SDS011;24099;47.102;15.440;2023-09-19T15:44:49;0.60;;;0.60;;
3667;SDS011;24099;47.102;15.440;2023-09-19T15:47:17;0.40;;;0.40;;
3667;SDS011;24099;47.102;15.440;2023-09-19T15:49:44;0.80;;;0.75;;
3667;SDS011;24099;47.102;15.440;2023-09-19T15:52:12;1.27;;;0.80;;
3667;SDS011;24099;47.102;15.440;2023-09-19T15:54:41;0.40;;;0.40;;
3667;SDS011;24099;47.102;15.440;2023-09-19T15:57:10;0.60;;;0.60;;
3667;SDS011;24099;47.102;15.440;2023-09-19T15:59:38;0.77;;;0.70;;